Time;durP1;ratioP1;P1;durP2;ratioP2;P2;SDS_P1;SDS_P2;PMS_P1;PMS_P2;Temp;Humidity;BMP_temperature;BMP_pressure;BME280_temperature;BME280_humidity;BME280_pressure;Samples;Min_cycle;Max_cycle;Signal;HPM_P1;HPM_P2
2024/02/24 00:02:26;;;;;;;;;;;;;;;12.89;92.38;94391.91;10463695;28;19912;-74
2024/02/24 00:07:26;;;;;;;;;;;;;;;12.91;91.99;94386.22;10463989;28;19919;-75
2024/02/24 00:12:27;;;;;;;;;;;;;;;12.83;94.58;94383.09;10463599;28;19913;-74
2024/02/24 00:17:27;;;;;;;;;;;;;;;12.74;95.41;94390.28;10463524;28;19934;-76
2024/02/24 00:22:27;;;;;;;;;;;;;;;12.64;96.31;94377.78;10463641;28;19988;-75
2024/02/24 00:27:28;;;;;;;;;;;;;;;12.58;99.11;94394.31;10462608;28;20306;-73
2024/02/24 00:32:28;;;;;;;;;;;;;;;12.36;100.00;94384.94;10462978;28;19912;-75
2024/02/24 00:37:28;;;;;;;;;;;;;;;12.30;100.00;94389.59;10445411;28;19912;-75
2024/02/24 00:42:29;;;;;;;;;;;;;;;12.25;99.92;94395.09;10462644;28;19917;-75
2024/02/24 00:47:29;;;;;;;;;;;;;;;12.24;100.00;94393.47;10444609;28;19912;-74
2024/02/24 00:52:31;;;;;;;;;;;;;;;12.05;100.00;94393.47;10462477;28;20360;-74
2024/02/24 00:57:31;;;;;;;;;;;;;;;11.98;100.00;94393.03;10461767;28;20665;-74
2024/02/24 01:02:31;;;;;;;;;;;;;;;11.89;100.00;94381.25;10462260;28;19920;-74
2024/02/24 01:07:31;;;;;;;;;;;;;;;11.82;100.00;94391.59;10462121;28;19912;-74
2024/02/24 01:12:32;;;;;;;;;;;;;;;11.52;100.00;94383.59;10462005;28;19916;-74
2024/02/24 01:17:32;;;;;;;;;;;;;;;11.39;100.00;94403.94;10462082;28;19916;-75
2024/02/24 01:22:32;;;;;;;;;;;;;;;11.31;100.00;94406.47;10462024;28;20362;-75
2024/02/24 01:27:32;;;;;;;;;;;;;;;11.28;100.00;94402.44;10468859;28;19928;-74
2024/02/24 01:32:33;;;;;;;;;;;;;;;11.28;100.00;94405.13;10470658;28;20005;-73
2024/02/24 01:37:33;;;;;;;;;;;;;;;11.78;97.57;94402.94;10470558;28;19913;-74
2024/02/24 01:42:34;;;;;;;;;;;;;;;12.09;92.31;94382.91;10470393;28;19916;-73
2024/02/24 01:47:34;;;;;;;;;;;;;;;12.20;93.55;94372.81;10470412;28;19923;-75
2024/02/24 01:52:34;;;;;;;1999.90;999.90;;;;;;;12.30;92.30;94376.13;10468245;28;20804;-75
2024/02/24 01:57:45;;;;;;;1999.90;999.90;;;;;;;12.33;90.83;94363.19;10451054;28;20528;-74
2024/02/24 02:02:45;;;;;;;1999.90;999.90;;;;;;;12.08;93.26;94363.28;10450958;28;20119;-74
2024/02/24 02:07:45;;;;;;;1999.90;999.90;;;;;;;11.87;96.11;94370.00;10468390;28;20035;-75
2024/02/24 02:12:46;;;;;;;1999.90;999.90;;;;;;;11.48;99.51;94365.63;10468346;28;20222;-74
2024/02/24 02:17:46;;;;;;;1999.90;999.90;;;;;;;11.17;100.00;94366.78;10468468;28;20336;-75
2024/02/24 02:22:47;;;;;;;1999.90;999.90;;;;;;;10.81;100.00;94359.06;10468355;28;20037;-75
2024/02/24 02:27:47;;;;;;;1999.90;999.90;;;;;;;10.47;100.00;94377.94;10468264;28;20033;-74
2024/02/24 02:32:47;;;;;;;1999.90;999.90;;;;;;;10.28;100.00;94373.19;10467535;28;20803;-74
2024/02/24 02:37:48;;;;;;;1999.90;999.90;;;;;;;10.11;100.00;94372.78;10466382;28;20373;-75
2024/02/24 02:42:48;;;;;;;1999.90;999.90;;;;;;;9.95;100.00;94372.88;10467801;28;20028;-74
2024/02/24 02:47:48;;;;;;;1999.90;999.90;;;;;;;9.91;100.00;94390.63;10467191;28;20270;-73
2024/02/24 02:52:49;;;;;;;1999.90;999.90;;;;;;;9.63;100.00;94411.69;10466911;28;20293;-74
2024/02/24 02:57:50;;;;;;;1999.90;999.90;;;;;;;9.53;100.00;94399.13;10467125;28;20396;-74
2024/02/24 03:02:50;;;;;;;1999.90;999.90;;;;;;;9.45;100.00;94418.47;10466635;28;20032;-74
2024/02/24 03:07:50;;;;;;;1999.90;999.90;;;;;;;9.31;100.00;94409.41;10466829;28;20129;-74
2024/02/24 03:12:51;;;;;;;1999.90;999.90;;;;;;;9.29;100.00;94433.78;10466308;28;20452;-74
2024/02/24 03:17:51;;;;;;;1999.90;999.90;;;;;;;9.05;100.00;94417.50;10466126;28;20036;-74
2024/02/24 03:22:52;;;;;;;1999.90;999.90;;;;;;;8.91;100.00;94413.78;10466074;28;20047;-74
2024/02/24 03:27:53;;;;;;;1999.90;999.90;;;;;;;8.94;100.00;94419.38;10465586;28;20274;-74
2024/02/24 03:32:53;;;;;;;1999.90;999.90;;;;;;;8.86;100.00;94446.72;10465457;28;20267;-74
2024/02/24 03:37:54;;;;;;;1999.90;999.90;;;;;;;8.79;100.00;94432.78;10464920;28;20117;-75
2024/02/24 03:42:54;;;;;;;1999.90;999.90;;;;;;;8.66;100.00;94432.25;10464414;28;20291;-75
2024/02/24 03:47:54;;;;;;;1999.90;999.90;;;;;;;8.65;100.00;94446.75;10464285;28;20787;-75
2024/02/24 03:52:55;;;;;;;1999.90;999.90;;;;;;;8.58;100.00;94446.19;10464319;28;20098;-74
2024/02/24 03:57:56;;;;;;;1999.90;999.90;;;;;;;8.57;100.00;94476.75;10464505;28;20283;-75
2024/02/24 04:02:56;;;;;;;1999.90;999.90;;;;;;;8.51;100.00;94483.97;10464275;28;20060;-74
2024/02/24 04:07:56;;;;;;;1999.90;999.90;;;;;;;8.90;100.00;94463.88;10463753;28;20032;-74
2024/02/24 04:12:57;;;;;;;1999.90;999.90;;;;;;;9.32;100.00;94425.22;10463765;28;20274;-75
2024/02/24 04:17:57;;;;;;;1999.90;999.90;;;;;;;9.33;100.00;94461.66;10463119;28;20102;-74
2024/02/24 04:22:57;;;;;;;1999.90;999.90;;;;;;;9.25;100.00;94467.56;10463647;28;20035;-74
2024/02/24 04:27:58;;;;;;;1999.90;999.90;;;;;;;9.30;100.00;94456.84;10442569;28;20797;-75
2024/02/24 04:32:58;;;;;;;1999.90;999.90;;;;;;;9.26;100.00;94471.88;10440341;28;20502;-74
2024/02/24 04:37:58;;;;;;;1999.90;999.90;;;;;;;9.21;100.00;94470.03;10442495;28;20386;-75
2024/02/24 04:42:59;;;;;;;1999.90;999.90;;;;;;;9.17;100.00;94441.34;10439602;28;20025;-75
2024/02/24 04:47:59;;;;;;;1999.90;999.90;;;;;;;9.44;100.00;94469.72;10441195;28;20024;-74
2024/02/24 04:53:00;;;;;;;1999.90;999.90;;;;;;;9.40;100.00;94482.84;10442391;28;20286;-74
2024/02/24 04:58:00;;;;;;;1999.90;999.90;;;;;;;9.41;100.00;94495.97;10444699;28;20563;-74
2024/02/24 05:03:00;;;;;;;1999.90;999.90;;;;;;;9.34;100.00;94483.94;10461270;28;20035;-76
2024/02/24 05:08:01;;;;;;;1999.90;999.90;;;;;;;9.29;100.00;94489.31;10461590;28;20036;-74
2024/02/24 05:13:02;;;;;;;1999.90;999.90;;;;;;;9.28;100.00;94511.81;10446056;28;20043;-74
2024/02/24 05:18:02;;;;;;;1999.90;999.90;;;;;;;9.18;100.00;94524.19;10418518;28;20063;-74
2024/02/24 05:23:03;;;;;;;1999.90;999.90;;;;;;;9.17;100.00;94541.34;10419400;28;20468;-75
2024/02/24 05:28:03;;;;;;;1999.90;999.90;;;;;;;8.91;100.00;94519.09;10445099;28;20253;-74
2024/02/24 05:33:04;;;;;;;1999.90;999.90;;;;;;;8.87;100.00;94534.09;10460882;28;20101;-75
2024/02/24 05:38:04;;;;;;;1999.90;999.90;;;;;;;8.95;100.00;94548.84;10459820;28;20132;-74
2024/02/24 05:43:04;;;;;;;1999.90;999.90;;;;;;;8.82;100.00;94563.56;10459435;28;20752;-75
2024/02/24 05:48:05;;;;;;;1999.90;999.90;;;;;;;8.80;100.00;94568.38;10459761;28;20523;-75
2024/02/24 05:53:05;;;;;;;1999.90;999.90;;;;;;;8.89;100.00;94558.75;10462085;28;20049;-72
2024/02/24 05:58:06;;;;;;;1999.90;999.90;;;;;;;8.97;100.00;94581.53;10462076;28;20036;-73
2024/02/24 06:03:11;;;;;;;1999.90;999.90;;;;;;;8.86;100.00;94586.91;10444037;28;20297;-75
2024/02/24 06:08:12;;;;;;;1999.90;999.90;;;;;;;9.05;100.00;94608.63;10473906;22;20373;-76
2024/02/24 06:13:13;;;;;;;1999.90;999.90;;;;;;;9.14;100.00;94578.59;10418714;28;20028;-80
2024/02/24 06:18:15;;;;;;;1999.90;999.90;;;;;;;9.14;100.00;94594.69;10400961;28;20080;-77
2024/02/24 06:23:15;;;;;;;1999.90;999.90;;;;;;;9.46;100.00;94597.13;10382825;28;20120;-81
2024/02/24 06:28:16;;;;;;;1999.90;999.90;;;;;;;9.78;100.00;94598.66;10382279;28;20045;-75
2024/02/24 06:33:16;;;;;;;1999.90;999.90;;;;;;;10.43;100.00;94596.09;10375307;28;20088;-77
2024/02/24 06:38:17;;;;;;;1999.90;999.90;;;;;;;12.12;100.00;94595.94;10430438;28;20029;-80
2024/02/24 06:43:17;;;;;;;1999.90;999.90;;;;;;;13.92;87.25;94583.72;10393774;28;20055;-75
2024/02/24 06:48:18;;;;;;;1999.90;999.90;;;;;;;15.09;66.78;94557.31;10403261;28;20053;-77
2024/02/24 06:53:18;;;;;;;1999.90;999.90;;;;;;;16.87;59.10;94588.22;10385157;28;20048;-74
2024/02/24 06:58:18;;;;;;;1999.90;999.90;;;;;;;18.60;51.70;94567.66;10368731;28;20033;-80
2024/02/24 07:03:19;;;;;;;1999.90;999.90;;;;;;;19.67;46.89;94558.44;10384859;28;20135;-76
2024/02/24 07:08:19;;;;;;;1999.90;999.90;;;;;;;21.04;42.34;94546.56;10384592;28;20766;-81
2024/02/24 07:13:19;;;;;;;1999.90;999.90;;;;;;;21.81;39.90;94549.19;10383555;28;20362;-79
2024/02/24 07:18:20;;;;;;;1999.90;999.90;;;;;;;21.64;39.52;94550.28;10327468;28;20309;-82
2024/02/24 07:23:20;;;;;;;1999.90;999.90;;;;;;;21.09;39.77;94552.59;10343144;28;20036;-83
2024/02/24 07:28:21;;;;;;;1999.90;999.90;;;;;;;20.54;42.78;94552.06;10343004;28;20041;-79
2024/02/24 07:33:21;;;;;;;1999.90;999.90;;;;;;;20.28;42.54;94553.16;10360743;28;20646;-77
2024/02/24 07:38:22;;;;;;;1999.90;999.90;;;;;;;20.41;42.06;94569.56;10401495;28;20079;-76
2024/02/24 07:43:22;;;;;;;1999.90;999.90;;;;;;;21.03;40.98;94577.75;10397870;28;20033;-75
2024/02/24 07:48:23;;;;;;;1999.90;999.90;;;;;;;21.00;40.65;94579.22;10335247;28;20280;-75
2024/02/24 07:53:23;;;;;;;1999.90;999.90;;;;;;;20.98;40.89;94581.53;10342703;28;20060;-82
2024/02/24 07:58:23;;;;;;;1999.90;999.90;;;;;;;21.61;39.35;94566.59;10340002;28;20041;-78
2024/02/24 08:03:24;;;;;;;1999.90;999.90;;;;;;;22.88;38.00;94579.63;10335906;28;20088;-75
2024/02/24 08:08:24;;;;;;;1999.90;999.90;;;;;;;22.87;38.03;94587.06;10352190;28;20054;-77
2024/02/24 08:13:24;;;;;;;1999.90;999.90;;;;;;;22.70;36.43;94588.25;10335079;28;20416;-77
2024/02/24 08:18:25;;;;;;;1999.90;999.90;;;;;;;21.33;39.60;94598.19;10354247;28;20074;-77
2024/02/24 08:23:25;;;;;;;1999.90;999.90;;;;;;;20.27;40.66;94603.41;10339252;28;20045;-84
2024/02/24 08:28:25;;;;;;;1999.90;999.90;;;;;;;19.04;44.94;94611.81;10340246;28;20817;-77
2024/02/24 08:33:26;;;;;;;1999.90;999.90;;;;;;;18.41;45.93;94603.47;10357459;28;20087;-77
2024/02/24 08:38:29;;;;;;;1999.90;999.90;;;;;;;17.73;46.88;94598.66;10380892;28;20034;-78
2024/02/24 08:43:30;;;;;;;1999.90;999.90;;;;;;;17.37;48.18;94592.44;10398468;28;20037;-80
2024/02/24 08:48:30;;;;;;;1999.90;999.90;;;;;;;17.22;46.31;94596.44;10379972;28;20439;-79
2024/02/24 08:53:30;;;;;;;1999.90;999.90;;;;;;;17.07;44.64;94603.13;10403673;23;20351;-76
2024/02/24 08:58:31;;;;;;;1999.90;999.90;;;;;;;16.96;46.19;94601.81;10461794;28;20083;-77
2024/02/24 09:03:31;;;;;;;1999.90;999.90;;;;;;;17.30;45.88;94605.69;10480178;28;20028;-77
2024/02/24 09:08:32;;;;;;;1999.90;999.90;;;;;;;17.48;45.60;94606.50;10480333;28;20043;-76
2024/02/24 09:13:33;;;;;;;1999.90;999.90;;;;;;;17.74;46.15;94597.53;10520862;28;20024;-77
2024/02/24 09:18:33;;;;;;;1999.90;999.90;;;;;;;18.05;46.15;94610.13;10503190;28;20026;-83
2024/02/24 09:23:33;;;;;;;1999.90;999.90;;;;;;;18.42;44.23;94589.53;10503772;28;20113;-80
2024/02/24 09:28:34;;;;;;;1999.90;999.90;;;;;;;18.83;44.60;94589.19;10504119;28;20070;-79
2024/02/24 09:33:34;;;;;;;1999.90;999.90;;;;;;;19.23;41.18;94592.31;10501524;28;20270;-77
2024/02/24 09:38:35;;;;;;;1999.90;999.90;;;;;;;19.49;40.63;94593.25;10461713;28;20158;-78
2024/02/24 09:43:35;;;;;;;1999.90;999.90;;;;;;;19.73;39.38;94587.91;10461149;28;20102;-76
2024/02/24 09:48:38;;;;;;;1999.90;999.90;;;;;;;19.86;39.36;94582.53;10468095;28;20907;-76
2024/02/24 09:53:38;;;;;;;1999.90;999.90;;;;;;;19.82;39.49;94571.47;10469076;28;20029;-76
2024/02/24 09:58:42;;;;;;;1999.90;999.90;;;;;;;19.50;39.01;94592.91;10468859;28;20044;-79
2024/02/24 10:03:43;;;;;;;1999.90;999.90;;;;;;;18.39;40.82;94592.09;10468665;28;20290;-77
2024/02/24 10:08:43;;;;;;;1999.90;999.90;;;;;;;18.18;42.76;94597.47;10468621;28;20625;-75
2024/02/24 10:13:44;;;;;;;1999.90;999.90;;;;;;;19.29;39.26;94603.81;10469394;28;20052;-82
2024/02/24 10:18:44;;;;;;;1999.90;999.90;;;;;;;19.49;37.89;94579.63;10469182;28;20421;-75
2024/02/24 10:23:46;;;;;;;1999.90;999.90;;;;;;;18.90;39.27;94593.00;10468252;28;20494;-76
2024/02/24 10:28:46;;;;;;;1999.90;999.90;;;;;;;18.65;39.65;94588.47;10468276;28;20297;-77
2024/02/24 10:33:47;;;;;;;1999.90;999.90;;;;;;;19.07;39.73;94588.56;10467356;28;20493;-74
2024/02/24 10:38:51;;;;;;;1999.90;999.90;;;;;;;20.57;37.20;94573.22;10482459;28;20115;-77
2024/02/24 10:43:53;;;;;;;1999.90;999.90;;;;;;;21.34;36.01;94577.91;10464237;28;20036;-82
2024/02/24 10:48:53;;;;;;;1999.90;999.90;;;;;;;21.17;35.27;94570.00;10464479;28;20036;-77
2024/02/24 10:53:56;;;;;;;1999.90;999.90;;;;;;;20.95;36.30;94569.34;10491801;28;20049;-77
2024/02/24 10:59:10;;;;;;;1999.90;999.90;;;;;;;21.19;36.09;94567.72;10465897;28;20557;-77
2024/02/24 11:04:12;;;;;;;1999.90;999.90;;;;;;;20.20;37.02;94588.75;10467327;28;20043;-77
2024/02/24 11:09:37;;;;;;;1999.90;999.90;;;;;;;19.33;39.46;94571.25;10467888;28;20568;-83
2024/02/24 11:14:40;;;;;;;1999.90;999.90;;;;;;;17.70;42.76;94586.50;10472231;28;20044;-77
2024/02/24 11:19:48;;;;;;;1999.90;999.90;;;;;;;17.11;44.94;94586.19;10449766;28;20603;-77
2024/02/24 11:25:06;;;;;;;1999.90;999.90;;;;;;;16.84;45.96;94616.00;10466144;28;20509;-81
2024/02/24 11:30:34;;;;;;;1999.90;999.90;;;;;;;16.97;45.79;94602.63;10465850;28;20044;-75
2024/02/24 11:35:35;;;;;;;1999.90;999.90;;;;;;;17.15;44.97;94592.56;10465415;28;20121;-76
2024/02/24 11:40:36;;;;;;;1999.90;999.90;;;;;;;17.52;44.63;94574.84;10465245;28;20151;-81
2024/02/24 11:45:36;;;;;;;1999.90;999.90;;;;;;;17.83;44.06;94562.97;10465837;28;20028;-77
2024/02/24 11:50:37;;;;;;;1999.90;999.90;;;;;;;17.74;43.73;94559.47;10448649;28;20633;-78
2024/02/24 11:55:37;;;;;;;1999.90;999.90;;;;;;;18.08;42.99;94555.91;10464266;28;20057;-80
2024/02/24 12:00:39;;;;;;;1999.90;999.90;;;;;;;17.81;42.87;94554.34;10464647;28;20039;-76
2024/02/24 12:05:40;;;;;;;1999.90;999.90;;;;;;;17.70;42.89;94545.72;10464615;28;20115;-76
2024/02/24 12:10:40;;;;;;;1999.90;999.90;;;;;;;17.50;43.63;94543.69;10463947;28;20042;-82
2024/02/24 12:15:43;;;;;;;1999.90;999.90;;;;;;;17.38;43.77;94542.41;10463800;28;20024;-81
2024/02/24 12:20:48;;;;;;;1999.90;999.90;;;;;;;17.38;44.23;94538.91;10463722;28;20117;-80
2024/02/24 12:25:49;;;;;;;1999.90;999.90;;;;;;;17.23;45.01;94538.28;10447302;28;20032;-76
2024/02/24 12:30:52;;;;;;;1999.90;999.90;;;;;;;17.15;45.06;94544.50;10481146;28;20063;-79
2024/02/24 12:35:53;;;;;;;1999.90;999.90;;;;;;;17.07;45.85;94542.59;10481395;28;20027;-80
2024/02/24 12:40:57;;;;;;;1999.90;999.90;;;;;;;16.77;46.46;94549.72;10446217;28;20520;-77
2024/02/24 12:45:57;;;;;;;1999.90;999.90;;;;;;;16.52;47.66;94535.78;10463189;28;20024;-78
2024/02/24 12:50:58;;;;;;;1999.90;999.90;;;;;;;16.52;47.93;94531.16;10462876;28;20032;-77
2024/02/24 12:55:59;;;;;;;1999.90;999.90;;;;;;;16.42;48.60;94533.34;10480170;28;20083;-76
2024/02/24 13:01:00;;;;;;;1999.90;999.90;;;;;;;16.45;48.41;94547.09;10463120;28;20064;-81
2024/02/24 13:06:01;;;;;;;1999.90;999.90;;;;;;;16.57;48.79;94541.06;10462262;28;20031;-76
2024/02/24 13:11:01;;;;;;;1999.90;999.90;;;;;;;16.73;49.10;94547.63;10481298;28;20290;-77
2024/02/24 13:16:03;;;;;;;1999.90;999.90;;;;;;;16.66;49.19;94532.94;10463038;28;20024;-76
2024/02/24 13:21:04;;;;;;;1999.90;999.90;;;;;;;16.65;48.25;94526.72;10468644;28;20119;-81
2024/02/24 13:26:04;;;;;;;1999.90;999.90;;;;;;;16.72;48.49;94526.25;10475255;28;20024;-76
2024/02/24 13:31:04;;;;;;;1999.90;999.90;;;;;;;16.86;48.02;94517.97;10494602;23;20048;-76
2024/02/24 13:36:05;;;;;;;1999.90;999.90;;;;;;;16.82;47.60;94519.72;10476497;28;20029;-84
2024/02/24 13:41:06;;;;;;;1999.90;999.90;;;;;;;16.70;47.32;94517.59;10493833;28;20043;-77
2024/02/24 13:46:07;;;;;;;1999.90;999.90;;;;;;;16.71;48.55;94528.16;10459177;28;20052;-76
2024/02/24 13:51:07;;;;;;;1999.90;999.90;;;;;;;16.81;48.35;94542.53;10476131;28;20507;-76
2024/02/24 13:56:07;;;;;;;1999.90;999.90;;;;;;;16.96;47.52;94542.09;10493453;28;20035;-80
2024/02/24 14:01:08;;;;;;;1999.90;999.90;;;;;;;17.08;46.97;94539.56;10476066;28;20177;-84
2024/02/24 14:06:08;;;;;;;1999.90;999.90;;;;;;;17.05;46.38;94534.78;10475419;28;20059;-75
2024/02/24 14:11:09;;;;;;;1999.90;999.90;;;;;;;16.82;45.84;94536.00;10493658;28;20108;-77
2024/02/24 14:16:09;;;;;;;1999.90;999.90;;;;;;;16.75;46.25;94531.81;10476599;28;20021;-77
2024/02/24 14:21:10;;;;;;;1999.90;999.90;;;;;;;16.71;46.34;94519.22;10476573;28;20038;-77
2024/02/24 14:26:11;;;;;;;1999.90;999.90;;;;;;;16.55;46.21;94524.31;10475698;28;20123;-82
2024/02/24 14:31:11;;;;;;;1999.90;999.90;;;;;;;16.51;46.35;94517.91;10492748;28;20121;-84
2024/02/24 14:36:12;;;;;;;1999.90;999.90;;;;;;;16.58;45.98;94524.47;10468289;28;20029;-79
2024/02/24 14:41:12;;;;;;;1999.90;999.90;;;;;;;16.54;46.57;94526.19;10468064;28;20430;-78
2024/02/24 14:46:13;;;;;;;1999.90;999.90;;;;;;;16.46;47.28;94528.91;10467807;28;20106;-80
2024/02/24 14:51:13;;;;;;;1999.90;999.90;;;;;;;16.31;47.19;94543.69;10486406;28;20658;-81
2024/02/24 14:56:13;;;;;;;1999.90;999.90;;;;;;;16.09;47.43;94548.09;10467567;28;20090;-81
2024/02/24 15:01:14;;;;;;;1999.90;999.90;;;;;;;16.17;47.85;94547.31;10467463;28;20486;-77
2024/02/24 15:06:15;;;;;;;1999.90;999.90;;;;;;;16.23;47.97;94554.19;10450467;28;20037;-75
2024/02/24 15:11:15;;;;;;;1999.90;999.90;;;;;;;16.19;48.45;94547.81;10467246;28;20024;-80
2024/02/24 15:16:16;;;;;;;1999.90;999.90;;;;;;;15.95;49.67;94542.75;10469647;28;20024;-81
2024/02/24 15:21:16;;;;;;;1999.90;999.90;;;;;;;15.95;49.37;94542.75;10467327;28;20109;-76
2024/02/24 15:26:16;;;;;;;1999.90;999.90;;;;;;;15.88;49.44;94551.34;10466393;28;20289;-77
2024/02/24 15:31:22;;;;;;;1999.90;999.90;;;;;;;15.81;50.41;94552.88;10487590;28;20634;-83
2024/02/24 15:36:22;;;;;;;1999.90;999.90;;;;;;;15.69;51.58;94558.84;10452110;28;20032;-80
2024/02/24 15:41:23;;;;;;;1999.90;999.90;;;;;;;15.68;52.06;94571.59;10468503;28;20144;-81
2024/02/24 15:46:28;;;;;;;1999.90;999.90;;;;;;;15.61;52.70;94568.50;10448796;28;20040;-82
2024/02/24 15:51:28;;;;;;;1999.90;999.90;;;;;;;15.60;53.06;94575.06;10423839;28;20112;-77
2024/02/24 15:56:29;;;;;;;1999.90;999.90;;;;;;;15.52;53.75;94576.59;10403503;28;20063;-76
2024/02/24 16:01:29;;;;;;;1999.90;999.90;;;;;;;15.49;54.07;94584.53;10405089;28;20032;-76
2024/02/24 16:06:29;;;;;;;1999.90;999.90;;;;;;;15.49;53.80;94584.53;10408000;28;20298;-76
2024/02/24 16:11:30;;;;;;;1999.90;999.90;;;;;;;15.52;53.71;94590.13;10398305;28;20646;-76
2024/02/24 16:16:30;;;;;;;1999.90;999.90;;;;;;;15.48;54.36;94585.66;10401326;28;20283;-77
2024/02/24 16:21:30;;;;;;;1999.90;999.90;;;;;;;15.46;54.69;94607.63;10406808;28;20056;-77
2024/02/24 16:26:31;;;;;;;1999.90;999.90;;;;;;;15.36;55.74;94605.94;10394296;28;20292;-76
2024/02/24 16:31:31;;;;;;;1999.90;999.90;;;;;;;15.36;56.41;94602.44;10436137;28;20057;-75
2024/02/24 16:36:35;;;;;;;1999.90;999.90;;;;;;;15.24;57.51;94611.09;10427187;28;20035;-78
2024/02/24 16:41:37;;;;;;;1999.90;999.90;;;;;;;15.25;57.23;94612.72;10429750;28;20025;-75
2024/02/24 16:46:42;;;;;;;1999.90;999.90;;;;;;;15.30;56.97;94609.88;10446907;28;20028;-77
2024/02/24 16:51:44;;;;;;;1999.90;999.90;;;;;;;15.13;57.43;94594.28;10450082;28;20556;-79
2024/02/24 16:56:44;;;;;;;1999.90;999.90;;;;;;;15.17;58.46;94606.09;10429012;28;20028;-77
2024/02/24 17:01:49;;;;;;;1999.90;999.90;;;;;;;15.12;58.89;94595.38;10442422;28;20422;-81
2024/02/24 17:06:49;;;;;;;1999.90;999.90;;;;;;;15.18;59.68;94598.78;10420588;28;20048;-77
2024/02/24 17:11:51;;;;;;;1999.90;999.90;;;;;;;15.17;59.95;94599.91;10453240;28;20452;-77
2024/02/24 17:16:51;;;;;;;1999.90;999.90;;;;;;;15.24;60.20;94604.88;10458927;28;20279;-77
2024/02/24 17:21:52;;;;;;;1999.90;999.90;;;;;;;15.11;61.76;94593.81;10425980;28;20033;-76
2024/02/24 17:26:54;;;;;;;1999.90;999.90;;;;;;;15.24;57.37;94599.44;10424680;28;20033;-75
2024/02/24 17:31:55;;;;;;;1999.90;999.90;;;;;;;15.32;58.94;94594.13;10448364;28;20986;-76
2024/02/24 17:36:55;;;;;;;1999.90;999.90;;;;;;;15.38;58.45;94581.28;10442937;28;20136;-77
2024/02/24 17:41:55;;;;;;;1999.90;999.90;;;;;;;15.53;53.74;94594.44;10449621;28;20013;-77
2024/02/24 17:46:56;;;;;;;1999.90;999.90;;;;;;;15.51;55.51;94595.84;10452362;28;20031;-77
2024/02/24 17:52:04;;;;;;;1999.90;999.90;;;;;;;15.40;56.21;94611.53;10429816;28;20032;-76
2024/02/24 17:57:05;;;;;;;1999.90;999.90;;;;;;;15.42;56.46;94598.50;10425715;28;20037;-77
2024/02/24 18:02:06;;;;;;;1999.90;999.90;;;;;;;15.37;57.98;94610.25;10439797;28;20553;-74
2024/02/24 18:07:06;;;;;;;1999.90;999.90;;;;;;;15.47;58.28;94624.66;10423464;28;20418;-77
2024/02/24 18:12:07;;;;;;;1999.90;999.90;;;;;;;15.60;59.15;94631.94;10427312;28;20298;-77
2024/02/24 18:17:08;;;;;;;1999.90;999.90;;;;;;;15.64;58.83;94629.41;10453817;28;20051;-78
2024/02/24 18:22:08;;;;;;;1999.90;999.90;;;;;;;15.72;59.83;94620.53;10455965;28;20469;-75
2024/02/24 18:27:09;;;;;;;1999.90;999.90;;;;;;;15.66;60.63;94621.78;10434252;28;20364;-75
2024/02/24 18:32:10;;;;;;;1999.90;999.90;;;;;;;15.37;63.33;94633.81;10409606;28;20291;-75
2024/02/24 18:37:10;;;;;;;1999.90;999.90;;;;;;;15.17;67.79;94648.63;10437732;28;20052;-77
2024/02/24 18:42:11;;;;;;;1999.90;999.90;;;;;;;15.13;71.33;94658.47;10412846;28;20383;-75
2024/02/24 18:47:11;;;;;;;1999.90;999.90;;;;;;;15.09;73.51;94649.34;10413863;28;20396;-77
2024/02/24 18:52:12;;;;;;;1999.90;999.90;;;;;;;15.02;76.71;94668.69;10411315;28;20024;-75
2024/02/24 18:57:12;;;;;;;1999.90;999.90;;;;;;;15.00;76.65;94684.41;10429210;28;20765;-77
2024/02/24 19:02:12;;;;;;;1999.90;999.90;;;;;;;14.86;80.34;94687.94;10404269;28;20044;-76
2024/02/24 19:07:14;;;;;;;1999.90;999.90;;;;;;;14.83;81.98;94680.44;10413907;28;20106;-75
2024/02/24 19:12:15;;;;;;;1999.90;999.90;;;;;;;14.81;82.23;94687.25;10419589;28;20348;-76
2024/02/24 19:17:19;;;;;;;1999.90;999.90;;;;;;;14.78;84.25;94690.56;10412349;28;20743;-81
2024/02/24 19:22:20;;;;;;;1999.90;999.90;;;;;;;14.73;84.76;94718.50;10457006;23;20053;-77
2024/02/24 19:27:20;;;;;;;1999.90;999.90;;;;;;;14.67;87.58;94701.56;10451496;28;20041;-76
2024/02/24 19:32:20;;;;;;;1999.90;999.90;;;;;;;14.62;89.00;94708.94;10454876;28;20013;-82
2024/02/24 19:37:21;;;;;;;1999.90;999.90;;;;;;;14.54;89.30;94715.88;10455472;28;20024;-76
2024/02/24 19:42:23;;;;;;;1999.90;999.90;;;;;;;14.57;88.45;94714.44;10453579;28;20032;-75
2024/02/24 19:47:24;;;;;;;1999.90;999.90;;;;;;;14.43;90.96;94722.53;10454846;28;20309;-76
2024/02/24 19:52:24;;;;;;;1999.90;999.90;;;;;;;14.26;91.27;94725.81;10454435;28;20557;-77
2024/02/24 19:57:25;;;;;;;1999.90;999.90;;;;;;;14.35;91.81;94730.22;10441710;28;20024;-79
2024/02/24 20:02:25;;;;;;;1999.90;999.90;;;;;;;14.36;91.89;94718.31;10451784;28;20115;-77
2024/02/24 20:07:26;;;;;;;1999.90;999.90;;;;;;;14.46;91.06;94720.03;10450770;28;20040;-79
2024/02/24 20:12:26;;;;;;;1999.90;999.90;;;;;;;14.51;91.33;94719.97;10455124;28;20544;-78
2024/02/24 20:17:29;;;;;;;1999.90;999.90;;;;;;;14.46;92.99;94722.75;10458978;28;20371;-87
2024/02/24 20:22:30;;;;;;;1999.90;999.90;;;;;;;14.40;92.81;94718.53;10452048;28;21370;-80
2024/02/24 20:27:32;;;;;;;1999.90;999.90;;;;;;;14.26;94.06;94715.00;10450733;28;20366;-80
2024/02/24 20:32:32;;;;;;;1999.90;999.90;;;;;;;14.23;95.08;94729.91;10449237;28;20302;-83
2024/02/24 20:37:33;;;;;;;1999.90;999.90;;;;;;;14.28;94.52;94729.03;10462245;28;20026;-79
2024/02/24 20:42:33;;;;;;;1999.90;999.90;;;;;;;14.28;96.00;94737.94;10446308;28;20098;-80
2024/02/24 20:47:34;;;;;;;1999.90;999.90;;;;;;;14.23;98.68;94729.91;10439647;28;20325;-84
2024/02/24 20:52:37;;;;;;;1999.90;999.90;;;;;;;14.20;97.33;94727.78;10452226;28;20021;-87
2024/02/24 20:57:37;;;;;;;1999.90;999.90;;;;;;;14.24;96.63;94717.19;10450568;28;20278;-84
2024/02/24 21:02:39;;;;;;;1999.90;999.90;;;;;;;14.22;97.88;94733.72;10460047;28;20031;-85
2024/02/24 21:07:39;;;;;;;1999.90;999.90;;;;;;;14.12;98.78;94740.09;10457199;28;20110;-89
2024/02/24 21:12:40;;;;;;;1999.90;999.90;;;;;;;13.91;100.00;94738.78;10457611;28;20027;-81
2024/02/24 21:17:40;;;;;;;1999.90;999.90;;;;;;;13.85;100.00;94732.66;10461587;28;20058;-81
2024/02/24 21:22:42;;;;;;;1999.90;999.90;;;;;;;13.89;100.00;94724.78;10449397;28;20681;-84
2024/02/24 21:27:43;;;;;;;1999.90;999.90;;;;;;;13.92;98.87;94729.59;10448078;28;20621;-82
2024/02/24 21:32:43;;;;;;;1999.90;999.90;;;;;;;13.94;99.54;94725.50;10449388;28;20063;-84
2024/02/24 21:37:44;;;;;;;1999.90;999.90;;;;;;;13.87;98.44;94708.88;10452865;28;20036;-84
2024/02/24 21:42:44;;;;;;;1999.90;999.90;;;;;;;13.99;97.43;94721.91;10461272;28;20043;-88
2024/02/24 21:47:45;;;;;;;1999.90;999.90;;;;;;;13.91;95.42;94711.78;10458120;28;20035;-87
2024/02/24 21:52:45;;;;;;;1999.90;999.90;;;;;;;13.83;95.34;94705.97;10470126;28;20606;-85
2024/02/24 21:57:46;;;;;;;1999.90;999.90;;;;;;;13.87;90.25;94708.06;10454792;28;20060;-81
2024/02/24 22:02:46;;;;;;;1999.90;999.90;;;;;;;13.96;82.68;94699.00;10447092;28;20067;-84
2024/02/24 22:07:46;;;;;;;1999.90;999.90;;;;;;;14.06;83.20;94689.91;10445299;28;20020;-86
2024/02/24 22:12:47;;;;;;;1999.90;999.90;;;;;;;13.97;86.13;94681.69;10468449;28;20606;-88
2024/02/24 22:17:59;;;;;;;1999.90;999.90;;;;;;;13.93;82.34;94679.88;10472234;28;20032;-84